sensor_id;sensor_type;location;lat;lon;timestamp;temperature;humidity
32215;DHT22;18708;53.124;23.190;2022-08-01T00:02:29;15.90;99.90
32215;DHT22;18708;53.124;23.190;2022-08-01T00:04:56;15.90;99.90
32215;DHT22;18708;53.124;23.190;2022-08-01T00:07:21;15.90;99.90
32215;DHT22;18708;53.124;23.190;2022-08-01T00:09:47;15.90;99.90
32215;DHT22;18708;53.124;23.190;2022-08-01T00:12:12;15.90;99.90
32215;DHT22;18708;53.124;23.190;2022-08-01T00:14:38;15.90;99.90
32215;DHT22;18708;53.124;23.190;2022-08-01T00:17:03;15.80;99.90
32215;DHT22;18708;53.124;23.190;2022-08-01T00:19:29;15.80;99.90
32215;DHT22;18708;53.124;23.190;2022-08-01T00:21:55;15.80;99.90
32215;DHT22;18708;53.124;23.190;2022-08-01T00:24:20;15.80;99.90
32215;DHT22;18708;53.124;23.190;2022-08-01T00:26:46;15.80;99.90
32215;DHT22;18708;53.124;23.190;2022-08-01T00:29:11;15.80;99.90
32215;DHT22;18708;53.124;23.190;2022-08-01T00:31:37;15.80;99.90
32215;DHT22;18708;53.124;23.190;2022-08-01T00:34:02;15.80;99.90
32215;DHT22;18708;53.124;23.190;2022-08-01T00:36:28;15.70;99.90
32215;DHT22;18708;53.124;23.190;2022-08-01T00:38:53;15.70;99.90
32215;DHT22;18708;53.124;23.190;2022-08-01T00:41:19;15.80;99.90
32215;DHT22;18708;53.124;23.190;2022-08-01T00:43:44;15.80;99.90
32215;DHT22;18708;53.124;23.190;2022-08-01T00:46:10;15.80;99.90
32215;DHT22;18708;53.124;23.190;2022-08-01T00:48:36;15.80;99.90
32215;DHT22;18708;53.124;23.190;2022-08-01T00:51:02;15.80;99.90
32215;DHT22;18708;53.124;23.190;2022-08-01T00:53:28;15.70;99.90
32215;DHT22;18708;53.124;23.190;2022-08-01T00:55:54;15.80;99.90
32215;DHT22;18708;53.124;23.190;2022-08-01T00:58:20;15.80;99.90
32215;DHT22;18708;53.124;23.190;2022-08-01T01:00:45;15.70;99.90
32215;DHT22;18708;53.124;23.190;2022-08-01T01:03:11;15.70;99.90
32215;DHT22;18708;53.124;23.190;2022-08-01T01:05:40;15.70;99.90
32215;DHT22;18708;53.124;23.190;2022-08-01T01:08:13;15.70;99.90
32215;DHT22;18708;53.124;23.190;2022-08-01T01:13:18;15.70;99.90
32215;DHT22;18708;53.124;23.190;2022-08-01T01:15:46;15.80;99.90
32215;DHT22;18708;53.124;23.190;2022-08-01T01:18:14;15.70;99.90
32215;DHT22;18708;53.124;23.190;2022-08-01T01:20:44;15.80;99.90
32215;DHT22;18708;53.124;23.190;2022-08-01T01:28:10;15.70;99.90
32215;DHT22;18708;53.124;23.190;2022-08-01T01:30:38;15.70;99.90
32215;DHT22;18708;53.124;23.190;2022-08-01T01:33:06;15.70;99.90
32215;DHT22;18708;53.124;23.190;2022-08-01T01:35:35;15.80;99.90
32215;DHT22;18708;53.124;23.190;2022-08-01T01:38:04;15.80;99.90
32215;DHT22;18708;53.124;23.190;2022-08-01T01:40:30;15.70;99.90
32215;DHT22;18708;53.124;23.190;2022-08-01T01:42:56;15.70;99.90
32215;DHT22;18708;53.124;23.190;2022-08-01T01:45:23;15.70;99.90
32215;DHT22;18708;53.124;23.190;2022-08-01T01:47:49;15.60;99.90
32215;DHT22;18708;53.124;23.190;2022-08-01T01:50:15;15.60;99.90
32215;DHT22;18708;53.124;23.190;2022-08-01T01:52:43;15.50;99.90
32215;DHT22;18708;53.124;23.190;2022-08-01T01:55:09;15.50;99.90
32215;DHT22;18708;53.124;23.190;2022-08-01T01:57:36;15.70;99.90
32215;DHT22;18708;53.124;23.190;2022-08-01T02:00:03;15.70;99.90
32215;DHT22;18708;53.124;23.190;2022-08-01T02:02:31;15.70;99.90
32215;DHT22;18708;53.124;23.190;2022-08-01T02:04:58;15.70;99.90
32215;DHT22;18708;53.124;23.190;2022-08-01T02:07:24;15.70;99.90
32215;DHT22;18708;53.124;23.190;2022-08-01T02:09:50;15.70;99.90
32215;DHT22;18708;53.124;23.190;2022-08-01T02:12:16;15.70;99.90
32215;DHT22;18708;53.124;23.190;2022-08-01T02:14:43;15.70;99.90
32215;DHT22;18708;53.124;23.190;2022-08-01T02:17:11;15.70;99.90
32215;DHT22;18708;53.124;23.190;2022-08-01T02:19:37;15.60;99.90
32215;DHT22;18708;53.124;23.190;2022-08-01T02:22:08;15.70;99.90
32215;DHT22;18708;53.124;23.190;2022-08-01T02:24:36;15.60;99.90
32215;DHT22;18708;53.124;23.190;2022-08-01T02:27:05;15.60;99.90
32215;DHT22;18708;53.124;23.190;2022-08-01T02:32:25;15.50;99.90
32215;DHT22;18708;53.124;23.190;2022-08-01T02:34:52;15.60;99.90
32215;DHT22;18708;53.124;23.190;2022-08-01T02:37:19;15.60;99.90
32215;DHT22;18708;53.124;23.190;2022-08-01T02:39:46;15.60;99.90
32215;DHT22;18708;53.124;23.190;2022-08-01T02:42:13;15.60;99.90
32215;DHT22;18708;53.124;23.190;2022-08-01T02:44:39;15.50;99.90
32215;DHT22;18708;53.124;23.190;2022-08-01T02:47:07;15.50;99.90
32215;DHT22;18708;53.124;23.190;2022-08-01T02:49:33;15.40;99.90
32215;DHT22;18708;53.124;23.190;2022-08-01T02:52:10;15.40;99.90
32215;DHT22;18708;53.124;23.190;2022-08-01T02:54:37;15.50;99.90
32215;DHT22;18708;53.124;23.190;2022-08-01T02:57:04;15.50;99.90
32215;DHT22;18708;53.124;23.190;2022-08-01T02:59:31;15.40;99.90
32215;DHT22;18708;53.124;23.190;2022-08-01T03:01:57;15.50;99.90
32215;DHT22;18708;53.124;23.190;2022-08-01T03:04:24;15.50;99.90
32215;DHT22;18708;53.124;23.190;2022-08-01T03:06:50;15.60;99.90
32215;DHT22;18708;53.124;23.190;2022-08-01T03:09:17;15.60;99.90
32215;DHT22;18708;53.124;23.190;2022-08-01T03:11:44;15.60;99.90
32215;DHT22;18708;53.124;23.190;2022-08-01T03:14:11;15.70;99.90
32215;DHT22;18708;53.124;23.190;2022-08-01T03:16:38;15.70;99.90
32215;DHT22;18708;53.124;23.190;2022-08-01T03:19:03;15.70;99.90
32215;DHT22;18708;53.124;23.190;2022-08-01T03:21:30;15.70;99.90
32215;DHT22;18708;53.124;23.190;2022-08-01T03:23:57;15.70;99.90
32215;DHT22;18708;53.124;23.190;2022-08-01T03:26:26;15.70;99.90
32215;DHT22;18708;53.124;23.190;2022-08-01T03:28:52;15.60;99.90
32215;DHT22;18708;53.124;23.190;2022-08-01T03:31:20;15.50;99.90
32215;DHT22;18708;53.124;23.190;2022-08-01T03:33:46;15.50;99.90
32215;DHT22;18708;53.124;23.190;2022-08-01T03:36:11;15.40;99.90
32215;DHT22;18708;53.124;23.190;2022-08-01T03:38:38;15.40;99.90
32215;DHT22;18708;53.124;23.190;2022-08-01T03:43:38;15.40;99.90
32215;DHT22;18708;53.124;23.190;2022-08-01T03:46:07;15.50;99.90
32215;DHT22;18708;53.124;23.190;2022-08-01T03:48:35;15.50;99.90
32215;DHT22;18708;53.124;23.190;2022-08-01T03:51:02;15.50;99.90
32215;DHT22;18708;53.124;23.190;2022-08-01T03:53:28;15.60;99.90
32215;DHT22;18708;53.124;23.190;2022-08-01T03:55:55;15.60;99.90
32215;DHT22;18708;53.124;23.190;2022-08-01T03:58:21;15.70;99.90
32215;DHT22;18708;53.124;23.190;2022-08-01T04:00:46;15.70;99.90
32215;DHT22;18708;53.124;23.190;2022-08-01T04:03:13;15.70;99.90
32215;DHT22;18708;53.124;23.190;2022-08-01T04:05:41;15.60;99.90
32215;DHT22;18708;53.124;23.190;2022-08-01T04:08:07;15.60;99.90
32215;DHT22;18708;53.124;23.190;2022-08-01T04:10:33;15.50;99.90
32215;DHT22;18708;53.124;23.190;2022-08-01T04:12:59;15.40;99.90
32215;DHT22;18708;53.124;23.190;2022-08-01T04:15:24;15.50;99.90
32215;DHT22;18708;53.124;23.190;2022-08-01T04:17:50;15.40;99.90
32215;DHT22;18708;53.124;23.190;2022-08-01T04:20:15;15.40;99.90
32215;DHT22;18708;53.124;23.190;2022-08-01T04:22:41;15.40;99.90
32215;DHT22;18708;53.124;23.190;2022-08-01T04:25:21;15.40;99.90
32215;DHT22;18708;53.124;23.190;2022-08-01T04:27:49;15.40;99.90
32215;DHT22;18708;53.124;23.190;2022-08-01T04:30:16;15.40;99.90
32215;DHT22;18708;53.124;23.190;2022-08-01T04:32:43;15.40;99.90
32215;DHT22;18708;53.124;23.190;2022-08-01T04:35:11;15.40;99.90
32215;DHT22;18708;53.124;23.190;2022-08-01T04:37:37;15.40;99.90
32215;DHT22;18708;53.124;23.190;2022-08-01T04:40:04;15.40;99.90
32215;DHT22;18708;53.124;23.190;2022-08-01T04:42:31;15.40;99.90
32215;DHT22;18708;53.124;23.190;2022-08-01T04:44:57;15.40;99.90
32215;DHT22;18708;53.124;23.190;2022-08-01T04:47:24;15.50;99.90
32215;DHT22;18708;53.124;23.190;2022-08-01T04:49:50;15.50;99.90
32215;DHT22;18708;53.124;23.190;2022-08-01T04:54:43;15.50;99.90
32215;DHT22;18708;53.124;23.190;2022-08-01T04:57:08;15.60;99.90
32215;DHT22;18708;53.124;23.190;2022-08-01T04:59:35;15.60;99.90
32215;DHT22;18708;53.124;23.190;2022-08-01T05:02:05;15.60;99.90
32215;DHT22;18708;53.124;23.190;2022-08-01T05:04:31;15.70;99.90
32215;DHT22;18708;53.124;23.190;2022-08-01T05:06:56;15.80;99.90
32215;DHT22;18708;53.124;23.190;2022-08-01T05:09:22;15.80;99.90
32215;DHT22;18708;53.124;23.190;2022-08-01T05:11:47;15.80;99.90
32215;DHT22;18708;53.124;23.190;2022-08-01T05:14:13;15.90;99.90
32215;DHT22;18708;53.124;23.190;2022-08-01T05:16:38;15.80;99.90
32215;DHT22;18708;53.124;23.190;2022-08-01T05:19:04;15.90;99.90
32215;DHT22;18708;53.124;23.190;2022-08-01T05:21:29;15.90;99.90
32215;DHT22;18708;53.124;23.190;2022-08-01T05:23:55;16.00;99.90
32215;DHT22;18708;53.124;23.190;2022-08-01T05:26:21;15.90;99.90
32215;DHT22;18708;53.124;23.190;2022-08-01T05:28:47;15.90;99.90
32215;DHT22;18708;53.124;23.190;2022-08-01T05:31:12;15.80;99.90
32215;DHT22;18708;53.124;23.190;2022-08-01T05:33:38;15.90;99.90
32215;DHT22;18708;53.124;23.190;2022-08-01T05:36:03;15.90;99.90
32215;DHT22;18708;53.124;23.190;2022-08-01T05:38:29;16.00;99.90
32215;DHT22;18708;53.124;23.190;2022-08-01T05:40:54;16.00;99.90
32215;DHT22;18708;53.124;23.190;2022-08-01T05:43:20;13.40;99.90
32215;DHT22;18708;53.124;23.190;2022-08-01T05:45:45;15.90;99.90
32215;DHT22;18708;53.124;23.190;2022-08-01T05:48:11;15.90;99.90
32215;DHT22;18708;53.124;23.190;2022-08-01T05:50:37;16.00;99.90
32215;DHT22;18708;53.124;23.190;2022-08-01T05:53:02;15.90;99.90
32215;DHT22;18708;53.124;23.190;2022-08-01T05:55:28;15.90;99.90
32215;DHT22;18708;53.124;23.190;2022-08-01T05:57:54;16.00;99.90
32215;DHT22;18708;53.124;23.190;2022-08-01T06:00:19;15.90;99.90
32215;DHT22;18708;53.124;23.190;2022-08-01T06:02:45;15.90;99.90
32215;DHT22;18708;53.124;23.190;2022-08-01T06:05:10;15.90;99.90
32215;DHT22;18708;53.124;23.190;2022-08-01T06:07:36;15.90;99.90
32215;DHT22;18708;53.124;23.190;2022-08-01T06:10:04;15.90;99.90
32215;DHT22;18708;53.124;23.190;2022-08-01T06:12:32;16.00;99.90
32215;DHT22;18708;53.124;23.190;2022-08-01T06:14:57;16.10;99.90
32215;DHT22;18708;53.124;23.190;2022-08-01T06:17:23;16.10;99.90
32215;DHT22;18708;53.124;23.190;2022-08-01T06:19:48;16.10;99.90
32215;DHT22;18708;53.124;23.190;2022-08-01T06:22:14;16.10;99.90
32215;DHT22;18708;53.124;23.190;2022-08-01T06:24:39;16.10;99.90
32215;DHT22;18708;53.124;23.190;2022-08-01T06:27:05;15.90;99.90
32215;DHT22;18708;53.124;23.190;2022-08-01T06:29:30;15.90;99.90
32215;DHT22;18708;53.124;23.190;2022-08-01T06:31:57;16.00;99.90
32215;DHT22;18708;53.124;23.190;2022-08-01T06:34:23;16.00;99.90
32215;DHT22;18708;53.124;23.190;2022-08-01T06:36:48;16.10;99.90
32215;DHT22;18708;53.124;23.190;2022-08-01T06:39:14;16.10;99.90
32215;DHT22;18708;53.124;23.190;2022-08-01T06:41:39;16.20;99.90
32215;DHT22;18708;53.124;23.190;2022-08-01T06:44:07;16.20;99.90
32215;DHT22;18708;53.124;23.190;2022-08-01T06:46:33;16.30;99.90
32215;DHT22;18708;53.124;23.190;2022-08-01T06:48:58;16.30;99.90
32215;DHT22;18708;53.124;23.190;2022-08-01T06:51:24;16.20;99.90
32215;DHT22;18708;53.124;23.190;2022-08-01T06:53:49;16.30;99.90
32215;DHT22;18708;53.124;23.190;2022-08-01T06:56:15;16.30;99.90
32215;DHT22;18708;53.124;23.190;2022-08-01T06:58:40;16.30;99.90
32215;DHT22;18708;53.124;23.190;2022-08-01T07:01:06;16.30;99.90
32215;DHT22;18708;53.124;23.190;2022-08-01T07:03:33;16.40;99.90
32215;DHT22;18708;53.124;23.190;2022-08-01T07:05:59;16.40;99.90
32215;DHT22;18708;53.124;23.190;2022-08-01T07:08:24;16.40;99.90
32215;DHT22;18708;53.124;23.190;2022-08-01T07:10:50;16.50;99.90
32215;DHT22;18708;53.124;23.190;2022-08-01T07:13:15;16.40;99.90
32215;DHT22;18708;53.124;23.190;2022-08-01T07:15:46;16.50;99.90
32215;DHT22;18708;53.124;23.190;2022-08-01T07:18:11;16.40;99.90
32215;DHT22;18708;53.124;23.190;2022-08-01T07:20:37;16.40;99.90
32215;DHT22;18708;53.124;23.190;2022-08-01T07:23:03;16.40;99.90
32215;DHT22;18708;53.124;23.190;2022-08-01T07:25:28;16.40;99.90
32215;DHT22;18708;53.124;23.190;2022-08-01T07:27:54;16.40;99.90
32215;DHT22;18708;53.124;23.190;2022-08-01T07:30:19;16.40;99.90
32215;DHT22;18708;53.124;23.190;2022-08-01T07:32:45;16.40;99.90
32215;DHT22;18708;53.124;23.190;2022-08-01T07:35:10;16.40;99.90
32215;DHT22;18708;53.124;23.190;2022-08-01T07:37:36;16.50;99.90
32215;DHT22;18708;53.124;23.190;2022-08-01T07:40:02;16.50;99.90
32215;DHT22;18708;53.124;23.190;2022-08-01T07:42:29;16.50;99.90
32215;DHT22;18708;53.124;23.190;2022-08-01T07:44:55;16.60;99.90
32215;DHT22;18708;53.124;23.190;2022-08-01T07:47:26;16.60;99.90
32215;DHT22;18708;53.124;23.190;2022-08-01T07:49:52;16.60;99.90
32215;DHT22;18708;53.124;23.190;2022-08-01T07:52:23;16.70;99.90
32215;DHT22;18708;53.124;23.190;2022-08-01T07:54:49;16.60;99.90
32215;DHT22;18708;53.124;23.190;2022-08-01T07:57:14;16.70;99.90
32215;DHT22;18708;53.124;23.190;2022-08-01T07:59:40;16.70;99.90
32215;DHT22;18708;53.124;23.190;2022-08-01T08:02:06;16.80;99.90
32215;DHT22;18708;53.124;23.190;2022-08-01T08:04:31;16.80;99.90
32215;DHT22;18708;53.124;23.190;2022-08-01T08:06:57;16.90;99.90
32215;DHT22;18708;53.124;23.190;2022-08-01T08:09:22;17.00;99.90
32215;DHT22;18708;53.124;23.190;2022-08-01T08:11:48;17.10;99.90
32215;DHT22;18708;53.124;23.190;2022-08-01T08:14:14;17.20;99.90
32215;DHT22;18708;53.124;23.190;2022-08-01T08:16:39;17.20;99.90
32215;DHT22;18708;53.124;23.190;2022-08-01T08:19:05;17.20;99.90
32215;DHT22;18708;53.124;23.190;2022-08-01T08:21:30;17.30;99.90
32215;DHT22;18708;53.124;23.190;2022-08-01T08:23:56;17.30;99.90
32215;DHT22;18708;53.124;23.190;2022-08-01T08:26:40;17.40;99.90
32215;DHT22;18708;53.124;23.190;2022-08-01T08:29:06;17.50;99.90
32215;DHT22;18708;53.124;23.190;2022-08-01T08:31:31;17.70;99.90
32215;DHT22;18708;53.124;23.190;2022-08-01T08:33:57;17.80;99.90
32215;DHT22;18708;53.124;23.190;2022-08-01T08:36:22;17.90;99.90
32215;DHT22;18708;53.124;23.190;2022-08-01T08:38:48;18.00;99.90
32215;DHT22;18708;53.124;23.190;2022-08-01T08:41:13;18.10;99.90
32215;DHT22;18708;53.124;23.190;2022-08-01T08:43:39;18.10;99.90
32215;DHT22;18708;53.124;23.190;2022-08-01T08:46:05;18.10;99.90
32215;DHT22;18708;53.124;23.190;2022-08-01T08:48:32;18.10;99.90
32215;DHT22;18708;53.124;23.190;2022-08-01T08:50:57;18.40;99.90
32215;DHT22;18708;53.124;23.190;2022-08-01T08:53:23;18.30;99.90
32215;DHT22;18708;53.124;23.190;2022-08-01T08:55:49;18.60;99.90
32215;DHT22;18708;53.124;23.190;2022-08-01T08:58:15;18.50;99.90
32215;DHT22;18708;53.124;23.190;2022-08-01T09:00:42;18.60;99.90
32215;DHT22;18708;53.124;23.190;2022-08-01T09:03:08;20.00;99.90
32215;DHT22;18708;53.124;23.190;2022-08-01T09:05:33;18.60;99.90
32215;DHT22;18708;53.124;23.190;2022-08-01T09:07:59;18.60;99.90
32215;DHT22;18708;53.124;23.190;2022-08-01T09:10:25;18.50;99.90
32215;DHT22;18708;53.124;23.190;2022-08-01T09:13:07;18.40;99.90
32215;DHT22;18708;53.124;23.190;2022-08-01T09:15:39;18.40;99.90
32215;DHT22;18708;53.124;23.190;2022-08-01T09:18:05;18.40;99.90
32215;DHT22;18708;53.124;23.190;2022-08-01T09:20:31;18.50;99.90
32215;DHT22;18708;53.124;23.190;2022-08-01T09:23:00;18.70;99.90
32215;DHT22;18708;53.124;23.190;2022-08-01T09:25:25;18.70;99.90
32215;DHT22;18708;53.124;23.190;2022-08-01T09:28:04;18.80;99.90
32215;DHT22;18708;53.124;23.190;2022-08-01T09:30:36;18.80;99.90
32215;DHT22;18708;53.124;23.190;2022-08-01T09:33:02;18.80;99.90
32215;DHT22;18708;53.124;23.190;2022-08-01T09:35:29;18.80;99.90
32215;DHT22;18708;53.124;23.190;2022-08-01T09:40:45;18.90;99.90
32215;DHT22;18708;53.124;23.190;2022-08-01T09:43:11;19.00;99.90
32215;DHT22;18708;53.124;23.190;2022-08-01T09:45:37;19.00;99.90
32215;DHT22;18708;53.124;23.190;2022-08-01T09:48:06;19.20;99.90
32215;DHT22;18708;53.124;23.190;2022-08-01T09:50:39;19.20;99.90
32215;DHT22;18708;53.124;23.190;2022-08-01T09:53:06;19.20;99.90
32215;DHT22;18708;53.124;23.190;2022-08-01T09:55:31;19.20;99.90
32215;DHT22;18708;53.124;23.190;2022-08-01T09:57:57;19.10;99.90
32215;DHT22;18708;53.124;23.190;2022-08-01T10:00:26;19.10;99.90
32215;DHT22;18708;53.124;23.190;2022-08-01T10:02:51;19.10;99.90
32215;DHT22;18708;53.124;23.190;2022-08-01T10:05:17;19.20;99.90
32215;DHT22;18708;53.124;23.190;2022-08-01T10:08:01;19.20;99.90
32215;DHT22;18708;53.124;23.190;2022-08-01T10:10:27;19.20;99.90
32215;DHT22;18708;53.124;23.190;2022-08-01T10:12:52;19.10;99.90
32215;DHT22;18708;53.124;23.190;2022-08-01T10:15:20;19.00;99.90
32215;DHT22;18708;53.124;23.190;2022-08-01T10:17:49;18.90;99.90
32215;DHT22;18708;53.124;23.190;2022-08-01T10:20:18;18.90;99.90
32215;DHT22;18708;53.124;23.190;2022-08-01T10:22:44;18.90;99.90
32215;DHT22;18708;53.124;23.190;2022-08-01T10:25:10;19.00;99.90
32215;DHT22;18708;53.124;23.190;2022-08-01T10:27:38;19.00;99.90
32215;DHT22;18708;53.124;23.190;2022-08-01T10:30:04;19.10;99.90
32215;DHT22;18708;53.124;23.190;2022-08-01T10:32:31;19.20;99.90
32215;DHT22;18708;53.124;23.190;2022-08-01T10:34:56;19.30;99.90
32215;DHT22;18708;53.124;23.190;2022-08-01T10:37:23;19.30;99.90
32215;DHT22;18708;53.124;23.190;2022-08-01T10:39:50;19.30;99.90
32215;DHT22;18708;53.124;23.190;2022-08-01T10:42:16;19.30;99.90
32215;DHT22;18708;53.124;23.190;2022-08-01T10:44:42;19.20;99.90
32215;DHT22;18708;53.124;23.190;2022-08-01T10:47:12;19.10;99.90
32215;DHT22;18708;53.124;23.190;2022-08-01T10:49:41;19.10;99.90
32215;DHT22;18708;53.124;23.190;2022-08-01T10:52:13;19.20;99.90
32215;DHT22;18708;53.124;23.190;2022-08-01T10:54:39;19.20;99.90
32215;DHT22;18708;53.124;23.190;2022-08-01T10:57:05;19.30;99.90
32215;DHT22;18708;53.124;23.190;2022-08-01T10:59:32;19.40;99.90
32215;DHT22;18708;53.124;23.190;2022-08-01T11:01:59;19.50;99.90
32215;DHT22;18708;53.124;23.190;2022-08-01T11:04:32;19.60;99.90
32215;DHT22;18708;53.124;23.190;2022-08-01T11:07:05;19.60;99.90
32215;DHT22;18708;53.124;23.190;2022-08-01T11:09:38;19.70;99.90
32215;DHT22;18708;53.124;23.190;2022-08-01T11:12:11;19.70;99.90
32215;DHT22;18708;53.124;23.190;2022-08-01T11:17:34;19.80;99.90
32215;DHT22;18708;53.124;23.190;2022-08-01T11:22:31;19.80;99.90
32215;DHT22;18708;53.124;23.190;2022-08-01T11:24:57;19.90;99.90
32215;DHT22;18708;53.124;23.190;2022-08-01T11:27:24;20.00;99.90
32215;DHT22;18708;53.124;23.190;2022-08-01T11:32:56;20.10;99.90
32215;DHT22;18708;53.124;23.190;2022-08-01T11:35:21;20.40;99.90
32215;DHT22;18708;53.124;23.190;2022-08-01T11:37:48;20.70;99.90
32215;DHT22;18708;53.124;23.190;2022-08-01T11:42:42;21.20;99.90
32215;DHT22;18708;53.124;23.190;2022-08-01T11:45:08;21.40;99.90
32215;DHT22;18708;53.124;23.190;2022-08-01T11:47:49;21.70;99.90
32215;DHT22;18708;53.124;23.190;2022-08-01T11:50:34;21.80;99.90
32215;DHT22;18708;53.124;23.190;2022-08-01T11:53:06;22.00;99.90
32215;DHT22;18708;53.124;23.190;2022-08-01T11:55:32;22.00;99.90
32215;DHT22;18708;53.124;23.190;2022-08-01T11:58:01;22.30;99.90
32215;DHT22;18708;53.124;23.190;2022-08-01T12:00:27;22.20;99.90
32215;DHT22;18708;53.124;23.190;2022-08-01T12:03:01;22.20;99.90
32215;DHT22;18708;53.124;23.190;2022-08-01T12:05:28;22.40;99.90
32215;DHT22;18708;53.124;23.190;2022-08-01T12:07:54;22.40;99.90
32215;DHT22;18708;53.124;23.190;2022-08-01T12:10:21;22.80;99.90
32215;DHT22;18708;53.124;23.190;2022-08-01T12:12:48;22.60;99.90
32215;DHT22;18708;53.124;23.190;2022-08-01T12:15:14;22.50;99.90
32215;DHT22;18708;53.124;23.190;2022-08-01T12:17:41;22.10;99.90
32215;DHT22;18708;53.124;23.190;2022-08-01T12:20:08;21.90;99.90
32215;DHT22;18708;53.124;23.190;2022-08-01T12:22:34;21.70;99.90
32215;DHT22;18708;53.124;23.190;2022-08-01T12:25:10;21.70;99.90
32215;DHT22;18708;53.124;23.190;2022-08-01T12:27:37;21.50;99.90
32215;DHT22;18708;53.124;23.190;2022-08-01T12:30:07;21.60;99.90
32215;DHT22;18708;53.124;23.190;2022-08-01T12:32:34;21.60;99.90
32215;DHT22;18708;53.124;23.190;2022-08-01T12:35:03;21.60;99.90
32215;DHT22;18708;53.124;23.190;2022-08-01T12:37:28;21.80;99.90
32215;DHT22;18708;53.124;23.190;2022-08-01T12:39:54;22.00;99.90
32215;DHT22;18708;53.124;23.190;2022-08-01T12:42:20;22.10;99.90
32215;DHT22;18708;53.124;23.190;2022-08-01T12:44:47;22.10;99.90
32215;DHT22;18708;53.124;23.190;2022-08-01T12:47:14;22.10;99.90
32215;DHT22;18708;53.124;23.190;2022-08-01T12:49:41;22.10;99.90
32215;DHT22;18708;53.124;23.190;2022-08-01T12:52:07;22.00;99.90
32215;DHT22;18708;53.124;23.190;2022-08-01T12:57:23;21.90;99.90
32215;DHT22;18708;53.124;23.190;2022-08-01T12:59:52;22.00;99.90
32215;DHT22;18708;53.124;23.190;2022-08-01T13:02:17;22.00;99.90
32215;DHT22;18708;53.124;23.190;2022-08-01T13:04:50;22.20;99.90
32215;DHT22;18708;53.124;23.190;2022-08-01T13:07:16;22.30;99.90
32215;DHT22;18708;53.124;23.190;2022-08-01T13:09:49;22.30;99.90
32215;DHT22;18708;53.124;23.190;2022-08-01T13:12:15;22.30;99.90
32215;DHT22;18708;53.124;23.190;2022-08-01T13:14:40;22.50;99.90
32215;DHT22;18708;53.124;23.190;2022-08-01T13:17:06;22.80;99.90
32215;DHT22;18708;53.124;23.190;2022-08-01T13:19:41;23.10;99.90
32215;DHT22;18708;53.124;23.190;2022-08-01T13:22:07;23.50;99.90
32215;DHT22;18708;53.124;23.190;2022-08-01T13:24:32;24.10;99.90
32215;DHT22;18708;53.124;23.190;2022-08-01T13:26:59;24.50;99.90
32215;DHT22;18708;53.124;23.190;2022-08-01T13:29:43;25.10;99.90
32215;DHT22;18708;53.124;23.190;2022-08-01T13:34:39;25.30;99.90
32215;DHT22;18708;53.124;23.190;2022-08-01T13:37:04;25.00;99.90
32215;DHT22;18708;53.124;23.190;2022-08-01T13:39:30;24.90;99.90
32215;DHT22;18708;53.124;23.190;2022-08-01T13:42:13;24.60;99.90
32215;DHT22;18708;53.124;23.190;2022-08-01T13:44:39;24.20;99.90
32215;DHT22;18708;53.124;23.190;2022-08-01T13:47:05;24.00;99.90
32215;DHT22;18708;53.124;23.190;2022-08-01T13:49:31;23.80;99.90
32215;DHT22;18708;53.124;23.190;2022-08-01T13:51:57;23.60;99.90
32215;DHT22;18708;53.124;23.190;2022-08-01T13:54:23;23.40;99.90
32215;DHT22;18708;53.124;23.190;2022-08-01T13:56:50;23.20;99.90
32215;DHT22;18708;53.124;23.190;2022-08-01T13:59:16;23.20;99.90
32215;DHT22;18708;53.124;23.190;2022-08-01T14:01:41;20.70;99.90
32215;DHT22;18708;53.124;23.190;2022-08-01T14:04:07;23.00;99.90
32215;DHT22;18708;53.124;23.190;2022-08-01T14:06:33;23.00;99.90
32215;DHT22;18708;53.124;23.190;2022-08-01T14:08:58;23.10;99.90
32215;DHT22;18708;53.124;23.190;2022-08-01T14:11:24;23.40;99.90
32215;DHT22;18708;53.124;23.190;2022-08-01T14:13:49;23.60;99.90
32215;DHT22;18708;53.124;23.190;2022-08-01T14:16:16;23.80;99.90
32215;DHT22;18708;53.124;23.190;2022-08-01T14:18:41;24.00;99.90
32215;DHT22;18708;53.124;23.190;2022-08-01T14:21:07;24.00;99.90
32215;DHT22;18708;53.124;23.190;2022-08-01T14:23:33;23.80;99.90
32215;DHT22;18708;53.124;23.190;2022-08-01T14:25:58;23.60;99.90
32215;DHT22;18708;53.124;23.190;2022-08-01T14:28:24;23.50;99.90
32215;DHT22;18708;53.124;23.190;2022-08-01T14:30:50;23.40;99.90
32215;DHT22;18708;53.124;23.190;2022-08-01T14:33:16;23.30;99.90
32215;DHT22;18708;53.124;23.190;2022-08-01T14:35:41;23.20;99.90
32215;DHT22;18708;53.124;23.190;2022-08-01T14:38:07;23.00;99.90
32215;DHT22;18708;53.124;23.190;2022-08-01T14:40:33;22.90;99.90
32215;DHT22;18708;53.124;23.190;2022-08-01T14:42:59;22.70;99.90
32215;DHT22;18708;53.124;23.190;2022-08-01T14:45:26;22.70;99.90
32215;DHT22;18708;53.124;23.190;2022-08-01T14:47:52;22.80;99.90
32215;DHT22;18708;53.124;23.190;2022-08-01T14:50:18;22.80;99.90
32215;DHT22;18708;53.124;23.190;2022-08-01T14:52:43;23.00;99.90
32215;DHT22;18708;53.124;23.190;2022-08-01T14:55:10;23.10;99.90
32215;DHT22;18708;53.124;23.190;2022-08-01T14:57:36;23.30;99.90
32215;DHT22;18708;53.124;23.190;2022-08-01T15:00:03;23.40;99.90
32215;DHT22;18708;53.124;23.190;2022-08-01T15:02:29;23.40;99.90
32215;DHT22;18708;53.124;23.190;2022-08-01T15:04:55;23.40;99.90
32215;DHT22;18708;53.124;23.190;2022-08-01T15:07:20;23.40;99.90
32215;DHT22;18708;53.124;23.190;2022-08-01T15:09:46;23.50;99.90
32215;DHT22;18708;53.124;23.190;2022-08-01T15:12:11;23.50;99.90
32215;DHT22;18708;53.124;23.190;2022-08-01T15:14:37;23.50;99.90
32215;DHT22;18708;53.124;23.190;2022-08-01T15:17:22;23.40;99.90
32215;DHT22;18708;53.124;23.190;2022-08-01T15:19:52;23.30;99.90
32215;DHT22;18708;53.124;23.190;2022-08-01T15:22:18;23.30;99.90
32215;DHT22;18708;53.124;23.190;2022-08-01T15:24:44;23.30;99.90
32215;DHT22;18708;53.124;23.190;2022-08-01T15:27:09;23.40;99.90
32215;DHT22;18708;53.124;23.190;2022-08-01T15:29:36;23.50;99.90
32215;DHT22;18708;53.124;23.190;2022-08-01T15:32:02;23.60;99.90
32215;DHT22;18708;53.124;23.190;2022-08-01T15:34:28;23.90;99.90
32215;DHT22;18708;53.124;23.190;2022-08-01T15:36:54;24.00;99.90
32215;DHT22;18708;53.124;23.190;2022-08-01T15:39:19;23.90;99.90
32215;DHT22;18708;53.124;23.190;2022-08-01T15:41:45;24.00;99.90
32215;DHT22;18708;53.124;23.190;2022-08-01T15:44:10;23.90;99.90
32215;DHT22;18708;53.124;23.190;2022-08-01T15:46:36;23.90;99.90
32215;DHT22;18708;53.124;23.190;2022-08-01T15:49:02;24.00;99.90